sensor_id;sensor_type;location;lat;lon;timestamp;temperature;humidity
13412;DHT22;67102;51.666;6.880;2023-02-21T00:01:47;13.80;84.60
13412;DHT22;67102;51.666;6.880;2023-02-21T00:04:13;13.80;84.60
13412;DHT22;67102;51.666;6.880;2023-02-21T00:06:42;13.80;84.60
13412;DHT22;67102;51.666;6.880;2023-02-21T00:09:10;13.80;84.60
13412;DHT22;67102;51.666;6.880;2023-02-21T00:11:40;13.80;84.60
13412;DHT22;67102;51.666;6.880;2023-02-21T00:14:07;13.80;84.60
13412;DHT22;67102;51.666;6.880;2023-02-21T00:16:33;13.80;84.60
13412;DHT22;67102;51.666;6.880;2023-02-21T00:18:58;15.50;85.60
13412;DHT22;67102;51.666;6.880;2023-02-21T00:21:26;13.80;84.60
13412;DHT22;67102;51.666;6.880;2023-02-21T00:23:53;11.50;83.20
13412;DHT22;67102;51.666;6.880;2023-02-21T00:26:21;13.80;84.60
13412;DHT22;67102;51.666;6.880;2023-02-21T00:28:47;13.80;84.60
13412;DHT22;67102;51.666;6.880;2023-02-21T00:31:17;13.90;84.60
13412;DHT22;67102;51.666;6.880;2023-02-21T00:33:43;13.80;84.60
13412;DHT22;67102;51.666;6.880;2023-02-21T00:36:15;13.80;84.50
13412;DHT22;67102;51.666;6.880;2023-02-21T00:38:41;13.80;84.60
13412;DHT22;67102;51.666;6.880;2023-02-21T00:41:07;13.80;84.50
13412;DHT22;67102;51.666;6.880;2023-02-21T00:43:35;13.80;84.40
13412;DHT22;67102;51.666;6.880;2023-02-21T00:46:01;13.80;84.50
13412;DHT22;67102;51.666;6.880;2023-02-21T00:48:27;13.80;84.60
13412;DHT22;67102;51.666;6.880;2023-02-21T00:50:53;13.80;84.60
13412;DHT22;67102;51.666;6.880;2023-02-21T00:53:19;13.80;84.60
13412;DHT22;67102;51.666;6.880;2023-02-21T00:55:44;13.80;84.50
13412;DHT22;67102;51.666;6.880;2023-02-21T00:58:10;13.80;84.50
13412;DHT22;67102;51.666;6.880;2023-02-21T01:00:38;13.80;84.60
13412;DHT22;67102;51.666;6.880;2023-02-21T01:03:04;13.80;84.60
13412;DHT22;67102;51.666;6.880;2023-02-21T01:05:30;13.80;84.60
13412;DHT22;67102;51.666;6.880;2023-02-21T01:07:56;13.80;84.60
13412;DHT22;67102;51.666;6.880;2023-02-21T01:10:22;13.70;84.50
13412;DHT22;67102;51.666;6.880;2023-02-21T01:12:48;13.80;84.60
13412;DHT22;67102;51.666;6.880;2023-02-21T01:15:14;13.80;84.60
13412;DHT22;67102;51.666;6.880;2023-02-21T01:17:42;13.80;84.60
13412;DHT22;67102;51.666;6.880;2023-02-21T01:20:08;13.70;85.00
13412;DHT22;67102;51.666;6.880;2023-02-21T01:22:34;13.80;84.70
13412;DHT22;67102;51.666;6.880;2023-02-21T01:25:01;13.80;84.80
13412;DHT22;67102;51.666;6.880;2023-02-21T01:27:27;13.70;84.60
13412;DHT22;67102;51.666;6.880;2023-02-21T01:29:53;13.70;84.70
13412;DHT22;67102;51.666;6.880;2023-02-21T01:32:19;13.70;84.70
13412;DHT22;67102;51.666;6.880;2023-02-21T01:34:46;13.80;84.80
13412;DHT22;67102;51.666;6.880;2023-02-21T01:37:12;13.70;84.70
13412;DHT22;67102;51.666;6.880;2023-02-21T01:39:38;13.90;84.80
13412;DHT22;67102;51.666;6.880;2023-02-21T01:42:04;13.70;84.80
13412;DHT22;67102;51.666;6.880;2023-02-21T01:44:36;13.70;84.70
13412;DHT22;67102;51.666;6.880;2023-02-21T01:47:02;13.70;84.80
13412;DHT22;67102;51.666;6.880;2023-02-21T01:49:29;13.70;84.80
13412;DHT22;67102;51.666;6.880;2023-02-21T01:51:57;13.70;84.80
13412;DHT22;67102;51.666;6.880;2023-02-21T01:54:25;13.70;84.90
13412;DHT22;67102;51.666;6.880;2023-02-21T01:56:54;13.70;85.00
13412;DHT22;67102;51.666;6.880;2023-02-21T01:59:22;13.70;85.00
13412;DHT22;67102;51.666;6.880;2023-02-21T02:01:51;13.70;85.00
13412;DHT22;67102;51.666;6.880;2023-02-21T02:04:20;13.70;85.00
13412;DHT22;67102;51.666;6.880;2023-02-21T02:06:46;13.70;85.00
13412;DHT22;67102;51.666;6.880;2023-02-21T02:09:18;13.70;85.00
13412;DHT22;67102;51.666;6.880;2023-02-21T02:11:59;13.70;85.00
13412;DHT22;67102;51.666;6.880;2023-02-21T02:15:02;13.70;85.00
13412;DHT22;67102;51.666;6.880;2023-02-21T02:18:00;13.70;85.00
13412;DHT22;67102;51.666;6.880;2023-02-21T02:24:13;13.70;84.90
13412;DHT22;67102;51.666;6.880;2023-02-21T02:27:32;13.70;84.90
13412;DHT22;67102;51.666;6.880;2023-02-21T02:30:51;13.70;85.00
13412;DHT22;67102;51.666;6.880;2023-02-21T02:37:07;13.70;85.00
13412;DHT22;67102;51.666;6.880;2023-02-21T02:39:40;13.70;84.90
13412;DHT22;67102;51.666;6.880;2023-02-21T02:42:16;13.70;84.90
13412;DHT22;67102;51.666;6.880;2023-02-21T02:44:52;13.70;85.00
13412;DHT22;67102;51.666;6.880;2023-02-21T02:47:24;13.60;85.00
13412;DHT22;67102;51.666;6.880;2023-02-21T02:49:54;13.60;85.00
13412;DHT22;67102;51.666;6.880;2023-02-21T02:52:22;13.60;85.20
13412;DHT22;67102;51.666;6.880;2023-02-21T02:54:57;13.60;85.10
13412;DHT22;67102;51.666;6.880;2023-02-21T02:57:24;13.60;85.10
13412;DHT22;67102;51.666;6.880;2023-02-21T02:59:50;13.50;85.10
13412;DHT22;67102;51.666;6.880;2023-02-21T03:02:36;13.60;85.20
13412;DHT22;67102;51.666;6.880;2023-02-21T03:05:23;13.60;85.30
13412;DHT22;67102;51.666;6.880;2023-02-21T03:08:10;13.60;85.30
13412;DHT22;67102;51.666;6.880;2023-02-21T03:10:45;13.60;85.20
13412;DHT22;67102;51.666;6.880;2023-02-21T03:13:17;13.60;85.30
13412;DHT22;67102;51.666;6.880;2023-02-21T03:15:50;13.50;85.30
13412;DHT22;67102;51.666;6.880;2023-02-21T03:18:22;13.50;85.40
13412;DHT22;67102;51.666;6.880;2023-02-21T03:20:53;13.50;85.40
13412;DHT22;67102;51.666;6.880;2023-02-21T03:23:25;13.40;85.30
13412;DHT22;67102;51.666;6.880;2023-02-21T03:25:54;13.50;85.40
13412;DHT22;67102;51.666;6.880;2023-02-21T03:28:23;13.50;85.40
13412;DHT22;67102;51.666;6.880;2023-02-21T03:30:52;13.60;85.50
13412;DHT22;67102;51.666;6.880;2023-02-21T03:33:19;13.50;85.50
13412;DHT22;67102;51.666;6.880;2023-02-21T03:35:45;13.50;85.50
13412;DHT22;67102;51.666;6.880;2023-02-21T03:38:11;13.60;85.60
13412;DHT22;67102;51.666;6.880;2023-02-21T03:40:38;13.50;85.50
13412;DHT22;67102;51.666;6.880;2023-02-21T03:43:05;13.60;85.60
13412;DHT22;67102;51.666;6.880;2023-02-21T03:45:31;13.60;85.50
13412;DHT22;67102;51.666;6.880;2023-02-21T03:47:57;13.60;85.20
13412;DHT22;67102;51.666;6.880;2023-02-21T03:50:23;13.60;85.10
13412;DHT22;67102;51.666;6.880;2023-02-21T03:52:49;13.60;85.10
13412;DHT22;67102;51.666;6.880;2023-02-21T03:55:15;13.70;85.30
13412;DHT22;67102;51.666;6.880;2023-02-21T03:57:43;13.60;85.30
13412;DHT22;67102;51.666;6.880;2023-02-21T04:00:10;13.60;85.30
13412;DHT22;67102;51.666;6.880;2023-02-21T04:02:37;13.60;85.30
13412;DHT22;67102;51.666;6.880;2023-02-21T04:05:03;13.60;85.10
13412;DHT22;67102;51.666;6.880;2023-02-21T04:07:29;13.60;85.00
13412;DHT22;67102;51.666;6.880;2023-02-21T04:09:55;13.60;85.10
13412;DHT22;67102;51.666;6.880;2023-02-21T04:12:21;13.60;85.10
13412;DHT22;67102;51.666;6.880;2023-02-21T04:14:48;13.60;85.20
13412;DHT22;67102;51.666;6.880;2023-02-21T04:17:14;13.50;85.10
13412;DHT22;67102;51.666;6.880;2023-02-21T04:19:40;13.50;85.10
13412;DHT22;67102;51.666;6.880;2023-02-21T04:22:06;13.60;85.20
13412;DHT22;67102;51.666;6.880;2023-02-21T04:24:32;13.60;85.10
13412;DHT22;67102;51.666;6.880;2023-02-21T04:26:58;13.50;85.10
13412;DHT22;67102;51.666;6.880;2023-02-21T04:29:24;13.50;85.10
13412;DHT22;67102;51.666;6.880;2023-02-21T04:31:51;13.50;85.10
13412;DHT22;67102;51.666;6.880;2023-02-21T04:34:17;13.50;85.20
13412;DHT22;67102;51.666;6.880;2023-02-21T04:36:43;13.50;85.30
13412;DHT22;67102;51.666;6.880;2023-02-21T04:39:09;13.40;85.20
13412;DHT22;67102;51.666;6.880;2023-02-21T04:41:35;13.40;85.30
13412;DHT22;67102;51.666;6.880;2023-02-21T04:44:01;13.40;85.30
13412;DHT22;67102;51.666;6.880;2023-02-21T04:46:27;13.40;85.40
13412;DHT22;67102;51.666;6.880;2023-02-21T04:48:54;13.40;85.50
13412;DHT22;67102;51.666;6.880;2023-02-21T04:51:22;13.40;85.50
13412;DHT22;67102;51.666;6.880;2023-02-21T04:53:49;13.40;85.50
13412;DHT22;67102;51.666;6.880;2023-02-21T04:56:18;13.40;85.50
13412;DHT22;67102;51.666;6.880;2023-02-21T04:58:44;13.40;85.50
13412;DHT22;67102;51.666;6.880;2023-02-21T05:01:11;13.40;85.50
13412;DHT22;67102;51.666;6.880;2023-02-21T05:03:37;13.40;85.60
13412;DHT22;67102;51.666;6.880;2023-02-21T05:06:05;13.40;85.60
13412;DHT22;67102;51.666;6.880;2023-02-21T05:08:31;13.40;85.50
13412;DHT22;67102;51.666;6.880;2023-02-21T05:10:57;13.40;85.60
13412;DHT22;67102;51.666;6.880;2023-02-21T05:13:23;13.40;85.60
13412;DHT22;67102;51.666;6.880;2023-02-21T05:15:49;13.40;85.60
13412;DHT22;67102;51.666;6.880;2023-02-21T05:18:15;13.40;85.60
13412;DHT22;67102;51.666;6.880;2023-02-21T05:20:41;13.40;85.60
13412;DHT22;67102;51.666;6.880;2023-02-21T05:23:08;13.40;85.60
13412;DHT22;67102;51.666;6.880;2023-02-21T05:25:34;13.40;85.80
13412;DHT22;67102;51.666;6.880;2023-02-21T05:28:00;13.40;85.80
13412;DHT22;67102;51.666;6.880;2023-02-21T05:30:26;13.40;85.80
13412;DHT22;67102;51.666;6.880;2023-02-21T05:32:52;13.40;85.90
13412;DHT22;67102;51.666;6.880;2023-02-21T05:35:18;13.40;85.60
13412;DHT22;67102;51.666;6.880;2023-02-21T05:37:44;13.50;85.80
13412;DHT22;67102;51.666;6.880;2023-02-21T05:40:12;13.50;85.70
13412;DHT22;67102;51.666;6.880;2023-02-21T05:42:38;13.40;85.70
13412;DHT22;67102;51.666;6.880;2023-02-21T05:45:04;13.50;85.80
13412;DHT22;67102;51.666;6.880;2023-02-21T05:47:30;13.50;85.70
13412;DHT22;67102;51.666;6.880;2023-02-21T05:49:58;13.50;85.70
13412;DHT22;67102;51.666;6.880;2023-02-21T05:52:23;13.50;85.80
13412;DHT22;67102;51.666;6.880;2023-02-21T05:54:49;13.50;85.70
13412;DHT22;67102;51.666;6.880;2023-02-21T05:57:17;13.50;85.70
13412;DHT22;67102;51.666;6.880;2023-02-21T05:59:43;13.50;85.80
13412;DHT22;67102;51.666;6.880;2023-02-21T06:02:09;13.50;85.80
13412;DHT22;67102;51.666;6.880;2023-02-21T06:04:35;13.50;85.70
13412;DHT22;67102;51.666;6.880;2023-02-21T06:07:01;13.40;85.60
13412;DHT22;67102;51.666;6.880;2023-02-21T06:09:27;13.40;85.60
13412;DHT22;67102;51.666;6.880;2023-02-21T06:11:55;13.40;85.60
13412;DHT22;67102;51.666;6.880;2023-02-21T06:14:23;13.40;85.80
13412;DHT22;67102;51.666;6.880;2023-02-21T06:16:49;13.40;85.80
13412;DHT22;67102;51.666;6.880;2023-02-21T06:19:16;13.30;85.80
13412;DHT22;67102;51.666;6.880;2023-02-21T06:21:44;13.30;85.80
13412;DHT22;67102;51.666;6.880;2023-02-21T06:24:11;13.30;85.80
13412;DHT22;67102;51.666;6.880;2023-02-21T06:26:38;13.30;86.00
13412;DHT22;67102;51.666;6.880;2023-02-21T06:29:04;13.20;86.10
13412;DHT22;67102;51.666;6.880;2023-02-21T06:31:31;13.20;86.20
13412;DHT22;67102;51.666;6.880;2023-02-21T06:33:58;13.20;86.20
13412;DHT22;67102;51.666;6.880;2023-02-21T06:36:26;13.10;86.30
13412;DHT22;67102;51.666;6.880;2023-02-21T06:38:54;13.10;86.40
13412;DHT22;67102;51.666;6.880;2023-02-21T06:41:23;13.10;86.50
13412;DHT22;67102;51.666;6.880;2023-02-21T06:43:50;13.10;86.50
13412;DHT22;67102;51.666;6.880;2023-02-21T06:46:16;13.10;86.50
13412;DHT22;67102;51.666;6.880;2023-02-21T06:48:44;13.10;86.50
13412;DHT22;67102;51.666;6.880;2023-02-21T06:51:10;13.10;86.70
13412;DHT22;67102;51.666;6.880;2023-02-21T06:53:36;13.10;86.60
13412;DHT22;67102;51.666;6.880;2023-02-21T06:56:03;13.00;86.60
13412;DHT22;67102;51.666;6.880;2023-02-21T06:58:29;13.10;86.70
13412;DHT22;67102;51.666;6.880;2023-02-21T07:00:55;13.10;87.10
13412;DHT22;67102;51.666;6.880;2023-02-21T07:03:22;13.10;86.70
13412;DHT22;67102;51.666;6.880;2023-02-21T07:05:50;13.10;86.80
13412;DHT22;67102;51.666;6.880;2023-02-21T07:08:16;13.10;86.80
13412;DHT22;67102;51.666;6.880;2023-02-21T07:10:42;13.10;86.80
13412;DHT22;67102;51.666;6.880;2023-02-21T07:13:08;13.10;86.80
13412;DHT22;67102;51.666;6.880;2023-02-21T07:15:34;13.10;86.80
13412;DHT22;67102;51.666;6.880;2023-02-21T07:18:00;13.00;86.80
13412;DHT22;67102;51.666;6.880;2023-02-21T07:20:25;13.00;86.90
13412;DHT22;67102;51.666;6.880;2023-02-21T07:22:53;13.00;87.00
13412;DHT22;67102;51.666;6.880;2023-02-21T07:25:21;13.10;87.30
13412;DHT22;67102;51.666;6.880;2023-02-21T07:27:47;13.10;87.20
13412;DHT22;67102;51.666;6.880;2023-02-21T07:30:13;13.00;87.00
13412;DHT22;67102;51.666;6.880;2023-02-21T07:32:40;13.10;87.20
13412;DHT22;67102;51.666;6.880;2023-02-21T07:35:07;13.10;87.20
13412;DHT22;67102;51.666;6.880;2023-02-21T07:37:33;13.10;87.20
13412;DHT22;67102;51.666;6.880;2023-02-21T07:40:00;13.10;87.20
13412;DHT22;67102;51.666;6.880;2023-02-21T07:42:26;13.20;87.40
13412;DHT22;67102;51.666;6.880;2023-02-21T07:44:54;13.20;87.30
13412;DHT22;67102;51.666;6.880;2023-02-21T07:47:21;13.20;87.40
13412;DHT22;67102;51.666;6.880;2023-02-21T07:49:47;13.20;87.30
13412;DHT22;67102;51.666;6.880;2023-02-21T07:52:13;13.20;87.30
13412;DHT22;67102;51.666;6.880;2023-02-21T07:54:39;13.20;87.30
13412;DHT22;67102;51.666;6.880;2023-02-21T07:57:06;13.20;87.30
13412;DHT22;67102;51.666;6.880;2023-02-21T07:59:32;13.20;87.50
13412;DHT22;67102;51.666;6.880;2023-02-21T08:01:58;13.20;87.50
13412;DHT22;67102;51.666;6.880;2023-02-21T08:04:24;13.20;87.40
13412;DHT22;67102;51.666;6.880;2023-02-21T08:06:50;13.20;87.40
13412;DHT22;67102;51.666;6.880;2023-02-21T08:09:16;13.20;87.40
13412;DHT22;67102;51.666;6.880;2023-02-21T08:11:42;13.20;87.40
13412;DHT22;67102;51.666;6.880;2023-02-21T08:14:09;13.20;87.50
13412;DHT22;67102;51.666;6.880;2023-02-21T08:16:35;13.30;87.70
13412;DHT22;67102;51.666;6.880;2023-02-21T08:19:01;13.30;87.60
13412;DHT22;67102;51.666;6.880;2023-02-21T08:21:27;13.20;87.60
13412;DHT22;67102;51.666;6.880;2023-02-21T08:23:54;13.30;87.70
13412;DHT22;67102;51.666;6.880;2023-02-21T08:26:20;13.30;87.80
13412;DHT22;67102;51.666;6.880;2023-02-21T08:28:46;13.30;87.80
13412;DHT22;67102;51.666;6.880;2023-02-21T08:31:13;13.40;87.90
13412;DHT22;67102;51.666;6.880;2023-02-21T08:33:39;13.40;87.90
13412;DHT22;67102;51.666;6.880;2023-02-21T08:36:06;13.40;87.70
13412;DHT22;67102;51.666;6.880;2023-02-21T08:38:32;13.40;87.70
13412;DHT22;67102;51.666;6.880;2023-02-21T08:40:58;13.40;87.50
13412;DHT22;67102;51.666;6.880;2023-02-21T08:43:24;13.50;87.50
13412;DHT22;67102;51.666;6.880;2023-02-21T08:45:50;13.40;87.50
13412;DHT22;67102;51.666;6.880;2023-02-21T08:48:17;13.40;87.70
13412;DHT22;67102;51.666;6.880;2023-02-21T08:50:43;13.40;87.70
13412;DHT22;67102;51.666;6.880;2023-02-21T08:53:10;13.40;87.60
13412;DHT22;67102;51.666;6.880;2023-02-21T08:55:37;13.40;87.80
13412;DHT22;67102;51.666;6.880;2023-02-21T08:58:03;13.40;87.70
13412;DHT22;67102;51.666;6.880;2023-02-21T09:00:29;13.40;87.70
13412;DHT22;67102;51.666;6.880;2023-02-21T09:02:57;13.40;87.70
13412;DHT22;67102;51.666;6.880;2023-02-21T09:05:26;13.50;87.90
13412;DHT22;67102;51.666;6.880;2023-02-21T09:07:55;13.40;87.80
13412;DHT22;67102;51.666;6.880;2023-02-21T09:10:22;13.40;87.80
13412;DHT22;67102;51.666;6.880;2023-02-21T09:12:48;13.40;87.70
13412;DHT22;67102;51.666;6.880;2023-02-21T09:15:14;13.40;87.70
13412;DHT22;67102;51.666;6.880;2023-02-21T09:17:41;13.40;87.80
13412;DHT22;67102;51.666;6.880;2023-02-21T09:20:10;13.40;87.70
13412;DHT22;67102;51.666;6.880;2023-02-21T09:22:41;13.50;87.70
13412;DHT22;67102;51.666;6.880;2023-02-21T09:25:07;13.50;87.80
13412;DHT22;67102;51.666;6.880;2023-02-21T09:27:33;13.50;87.90
13412;DHT22;67102;51.666;6.880;2023-02-21T09:29:59;13.50;87.90
13412;DHT22;67102;51.666;6.880;2023-02-21T09:32:25;13.50;87.80
13412;DHT22;67102;51.666;6.880;2023-02-21T09:34:51;13.50;87.60
13412;DHT22;67102;51.666;6.880;2023-02-21T09:37:17;13.50;87.50
13412;DHT22;67102;51.666;6.880;2023-02-21T09:39:44;13.50;87.50
13412;DHT22;67102;51.666;6.880;2023-02-21T09:42:14;13.50;87.70
13412;DHT22;67102;51.666;6.880;2023-02-21T09:44:41;13.50;87.80
13412;DHT22;67102;51.666;6.880;2023-02-21T09:47:09;13.60;87.90
13412;DHT22;67102;51.666;6.880;2023-02-21T09:49:40;13.50;88.00
13412;DHT22;67102;51.666;6.880;2023-02-21T09:52:15;13.50;88.10
13412;DHT22;67102;51.666;6.880;2023-02-21T09:54:46;13.60;88.30
13412;DHT22;67102;51.666;6.880;2023-02-21T09:57:17;13.60;88.40
13412;DHT22;67102;51.666;6.880;2023-02-21T09:59:43;13.70;88.40
13412;DHT22;67102;51.666;6.880;2023-02-21T10:02:23;13.70;88.40
13412;DHT22;67102;51.666;6.880;2023-02-21T10:05:06;13.70;88.30
13412;DHT22;67102;51.666;6.880;2023-02-21T10:07:40;13.80;89.00
13412;DHT22;67102;51.666;6.880;2023-02-21T10:10:14;13.80;89.40
13412;DHT22;67102;51.666;6.880;2023-02-21T10:12:45;13.90;89.30
13412;DHT22;67102;51.666;6.880;2023-02-21T10:15:38;14.00;88.90
13412;DHT22;67102;51.666;6.880;2023-02-21T10:18:15;14.20;88.40
13412;DHT22;67102;51.666;6.880;2023-02-21T10:20:50;14.20;88.20
13412;DHT22;67102;51.666;6.880;2023-02-21T10:23:20;14.20;87.70
13412;DHT22;67102;51.666;6.880;2023-02-21T10:25:51;14.20;87.20
13412;DHT22;67102;51.666;6.880;2023-02-21T10:28:22;14.20;87.00
13412;DHT22;67102;51.666;6.880;2023-02-21T10:30:50;14.20;87.10
13412;DHT22;67102;51.666;6.880;2023-02-21T10:33:17;14.20;87.00
13412;DHT22;67102;51.666;6.880;2023-02-21T10:35:43;14.30;86.90
13412;DHT22;67102;51.666;6.880;2023-02-21T10:38:12;14.30;86.70
13412;DHT22;67102;51.666;6.880;2023-02-21T10:40:41;14.20;86.30
13412;DHT22;67102;51.666;6.880;2023-02-21T10:43:12;14.20;86.30
13412;DHT22;67102;51.666;6.880;2023-02-21T10:45:44;14.30;86.70
13412;DHT22;67102;51.666;6.880;2023-02-21T10:48:16;14.30;86.90
13412;DHT22;67102;51.666;6.880;2023-02-21T10:50:49;14.30;86.80
13412;DHT22;67102;51.666;6.880;2023-02-21T10:53:28;14.30;87.40
13412;DHT22;67102;51.666;6.880;2023-02-21T10:56:24;14.30;86.30
13412;DHT22;67102;51.666;6.880;2023-02-21T10:58:56;14.30;85.90
13412;DHT22;67102;51.666;6.880;2023-02-21T11:01:34;14.30;86.00
13412;DHT22;67102;51.666;6.880;2023-02-21T11:04:04;14.30;85.70
13412;DHT22;67102;51.666;6.880;2023-02-21T11:06:34;14.40;85.80
13412;DHT22;67102;51.666;6.880;2023-02-21T11:09:03;14.40;85.80
13412;DHT22;67102;51.666;6.880;2023-02-21T11:11:59;14.30;86.00
13412;DHT22;67102;51.666;6.880;2023-02-21T11:14:29;14.40;86.00
13412;DHT22;67102;51.666;6.880;2023-02-21T11:17:21;14.40;86.10
13412;DHT22;67102;51.666;6.880;2023-02-21T11:19:50;14.50;85.60
13412;DHT22;67102;51.666;6.880;2023-02-21T11:22:20;14.50;86.20
13412;DHT22;67102;51.666;6.880;2023-02-21T11:25:00;14.50;86.30
13412;DHT22;67102;51.666;6.880;2023-02-21T11:27:30;14.60;86.40
13412;DHT22;67102;51.666;6.880;2023-02-21T11:30:00;14.60;86.00
13412;DHT22;67102;51.666;6.880;2023-02-21T11:32:31;14.70;85.60
13412;DHT22;67102;51.666;6.880;2023-02-21T11:35:06;14.70;85.20
13412;DHT22;67102;51.666;6.880;2023-02-21T11:37:48;14.70;85.40
13412;DHT22;67102;51.666;6.880;2023-02-21T11:40:23;14.70;85.20
13412;DHT22;67102;51.666;6.880;2023-02-21T11:42:51;14.70;85.20
13412;DHT22;67102;51.666;6.880;2023-02-21T11:45:37;14.80;85.60
13412;DHT22;67102;51.666;6.880;2023-02-21T11:48:11;14.80;85.40
13412;DHT22;67102;51.666;6.880;2023-02-21T11:50:43;14.80;85.40
13412;DHT22;67102;51.666;6.880;2023-02-21T11:53:17;14.90;85.60
13412;DHT22;67102;51.666;6.880;2023-02-21T11:55:51;14.90;85.70
13412;DHT22;67102;51.666;6.880;2023-02-21T11:58:24;15.00;85.60
13412;DHT22;67102;51.666;6.880;2023-02-21T12:00:58;15.00;85.50
13412;DHT22;67102;51.666;6.880;2023-02-21T12:06:53;15.10;84.80
13412;DHT22;67102;51.666;6.880;2023-02-21T12:09:27;15.20;84.70
13412;DHT22;67102;51.666;6.880;2023-02-21T12:12:10;15.20;84.60
13412;DHT22;67102;51.666;6.880;2023-02-21T12:14:54;15.20;84.40
13412;DHT22;67102;51.666;6.880;2023-02-21T12:17:56;15.20;84.50
13412;DHT22;67102;51.666;6.880;2023-02-21T12:20:41;15.30;84.30
13412;DHT22;67102;51.666;6.880;2023-02-21T12:23:23;15.30;83.90
13412;DHT22;67102;51.666;6.880;2023-02-21T12:26:08;15.30;84.00
13412;DHT22;67102;51.666;6.880;2023-02-21T12:28:57;15.30;83.80
13412;DHT22;67102;51.666;6.880;2023-02-21T12:31:36;15.30;83.80
13412;DHT22;67102;51.666;6.880;2023-02-21T12:34:23;15.30;83.50
13412;DHT22;67102;51.666;6.880;2023-02-21T12:37:06;15.30;83.10
13412;DHT22;67102;51.666;6.880;2023-02-21T12:39:54;15.30;83.00
13412;DHT22;67102;51.666;6.880;2023-02-21T12:42:48;15.30;83.50
13412;DHT22;67102;51.666;6.880;2023-02-21T12:45:40;15.30;83.50
13412;DHT22;67102;51.666;6.880;2023-02-21T12:48:17;15.30;83.70
13412;DHT22;67102;51.666;6.880;2023-02-21T12:50:48;15.40;84.40
13412;DHT22;67102;51.666;6.880;2023-02-21T12:53:19;15.40;84.50
13412;DHT22;67102;51.666;6.880;2023-02-21T12:55:53;15.50;84.80
13412;DHT22;67102;51.666;6.880;2023-02-21T12:58:27;15.60;84.90
13412;DHT22;67102;51.666;6.880;2023-02-21T13:00:57;15.70;84.70
13412;DHT22;67102;51.666;6.880;2023-02-21T13:03:35;15.70;84.50
13412;DHT22;67102;51.666;6.880;2023-02-21T13:06:13;15.80;83.90
13412;DHT22;67102;51.666;6.880;2023-02-21T13:08:50;15.80;83.70
13412;DHT22;67102;51.666;6.880;2023-02-21T13:11:24;15.90;83.10
13412;DHT22;67102;51.666;6.880;2023-02-21T13:13:55;16.00;83.30
13412;DHT22;67102;51.666;6.880;2023-02-21T13:16:21;15.90;83.10
13412;DHT22;67102;51.666;6.880;2023-02-21T13:18:50;16.00;82.50
13412;DHT22;67102;51.666;6.880;2023-02-21T13:21:28;16.00;82.30
13412;DHT22;67102;51.666;6.880;2023-02-21T13:24:22;16.00;81.90
13412;DHT22;67102;51.666;6.880;2023-02-21T13:27:02;16.10;81.20
13412;DHT22;67102;51.666;6.880;2023-02-21T13:29:42;16.10;82.10
13412;DHT22;67102;51.666;6.880;2023-02-21T13:32:10;16.10;82.60
13412;DHT22;67102;51.666;6.880;2023-02-21T13:34:40;16.10;82.60
13412;DHT22;67102;51.666;6.880;2023-02-21T13:37:14;16.10;82.60
13412;DHT22;67102;51.666;6.880;2023-02-21T13:39:45;16.20;82.10
13412;DHT22;67102;51.666;6.880;2023-02-21T13:42:17;16.20;82.40
13412;DHT22;67102;51.666;6.880;2023-02-21T13:44:46;16.20;82.30
13412;DHT22;67102;51.666;6.880;2023-02-21T13:47:15;16.20;82.30
13412;DHT22;67102;51.666;6.880;2023-02-21T13:49:47;16.30;82.30
13412;DHT22;67102;51.666;6.880;2023-02-21T13:55:27;16.40;81.20
13412;DHT22;67102;51.666;6.880;2023-02-21T14:01:40;16.40;80.70
13412;DHT22;67102;51.666;6.880;2023-02-21T14:07:59;16.40;78.80
13412;DHT22;67102;51.666;6.880;2023-02-21T14:10:42;16.40;79.10
13412;DHT22;67102;51.666;6.880;2023-02-21T14:13:22;16.40;79.60
13412;DHT22;67102;51.666;6.880;2023-02-21T14:15:58;16.40;79.90
13412;DHT22;67102;51.666;6.880;2023-02-21T14:18:27;16.40;80.20
13412;DHT22;67102;51.666;6.880;2023-02-21T14:20:57;16.30;80.20
13412;DHT22;67102;51.666;6.880;2023-02-21T14:23:32;16.30;80.20
13412;DHT22;67102;51.666;6.880;2023-02-21T14:26:05;16.30;79.70
13412;DHT22;67102;51.666;6.880;2023-02-21T14:29:01;16.30;80.20
13412;DHT22;67102;51.666;6.880;2023-02-21T14:31:51;16.20;79.00
13412;DHT22;67102;51.666;6.880;2023-02-21T14:34:32;16.20;79.40
13412;DHT22;67102;51.666;6.880;2023-02-21T14:37:03;16.20;79.40
13412;DHT22;67102;51.666;6.880;2023-02-21T14:39:35;16.20;79.90
13412;DHT22;67102;51.666;6.880;2023-02-21T14:42:19;16.20;79.50
13412;DHT22;67102;51.666;6.880;2023-02-21T14:48:34;16.20;79.30
13412;DHT22;67102;51.666;6.880;2023-02-21T14:51:31;16.30;79.20
13412;DHT22;67102;51.666;6.880;2023-02-21T14:54:25;16.20;79.50
13412;DHT22;67102;51.666;6.880;2023-02-21T14:57:15;16.20;79.20
13412;DHT22;67102;51.666;6.880;2023-02-21T15:00:17;16.20;79.30
13412;DHT22;67102;51.666;6.880;2023-02-21T15:02:50;16.20;79.30
13412;DHT22;67102;51.666;6.880;2023-02-21T15:05:21;16.20;79.30
13412;DHT22;67102;51.666;6.880;2023-02-21T15:07:58;16.10;79.50
13412;DHT22;67102;51.666;6.880;2023-02-21T15:10:41;16.10;79.30
13412;DHT22;67102;51.666;6.880;2023-02-21T15:13:20;16.10;79.50
13412;DHT22;67102;51.666;6.880;2023-02-21T15:15:55;16.10;79.20
13412;DHT22;67102;51.666;6.880;2023-02-21T15:18:26;16.10;79.20
13412;DHT22;67102;51.666;6.880;2023-02-21T15:21:11;16.10;79.00
13412;DHT22;67102;51.666;6.880;2023-02-21T15:23:44;16.10;78.70
13412;DHT22;67102;51.666;6.880;2023-02-21T15:26:29;16.10;79.10
13412;DHT22;67102;51.666;6.880;2023-02-21T15:29:03;16.10;78.70
13412;DHT22;67102;51.666;6.880;2023-02-21T15:31:32;16.00;79.80
13412;DHT22;67102;51.666;6.880;2023-02-21T15:33:58;16.00;79.30
13412;DHT22;67102;51.666;6.880;2023-02-21T15:36:25;16.00;79.40
13412;DHT22;67102;51.666;6.880;2023-02-21T15:38:56;16.00;79.40
13412;DHT22;67102;51.666;6.880;2023-02-21T15:41:30;16.00;79.30
13412;DHT22;67102;51.666;6.880;2023-02-21T15:44:01;16.00;80.20
13412;DHT22;67102;51.666;6.880;2023-02-21T15:46:33;16.00;79.20
13412;DHT22;67102;51.666;6.880;2023-02-21T15:49:05;15.90;79.30
13412;DHT22;67102;51.666;6.880;2023-02-21T15:51:31;15.90;79.30
13412;DHT22;67102;51.666;6.880;2023-02-21T15:54:08;15.90;79.20
13412;DHT22;67102;51.666;6.880;2023-02-21T15:56:37;15.90;78.70
13412;DHT22;67102;51.666;6.880;2023-02-21T15:59:17;15.90;79.00
13412;DHT22;67102;51.666;6.880;2023-02-21T16:01:44;15.90;78.70
13412;DHT22;67102;51.666;6.880;2023-02-21T16:04:16;15.90;79.10
13412;DHT22;67102;51.666;6.880;2023-02-21T16:06:46;15.90;79.00
13412;DHT22;67102;51.666;6.880;2023-02-21T16:09:21;15.80;79.00
13412;DHT22;67102;51.666;6.880;2023-02-21T16:11:53;15.80;78.80
13412;DHT22;67102;51.666;6.880;2023-02-21T16:14:25;15.80;78.90
13412;DHT22;67102;51.666;6.880;2023-02-21T16:17:16;15.80;78.80
13412;DHT22;67102;51.666;6.880;2023-02-21T16:19:50;15.80;78.70